createdAt,value
2023-04-08T00:00:39.443Z,15.60
2023-04-08T00:05:43.059Z,15.90
2023-04-08T00:10:46.274Z,16.23
2023-04-08T00:15:54.022Z,14.90
2023-04-08T00:20:57.564Z,15.23
2023-04-08T00:26:00.563Z,16.40
2023-04-08T00:31:05.106Z,17.73
2023-04-08T00:36:08.436Z,16.10
2023-04-08T00:41:11.754Z,16.60
2023-04-08T00:46:16.740Z,18.50
2023-04-08T00:51:20.320Z,18.03
2023-04-08T00:56:24.283Z,19.20
2023-04-08T01:01:35.751Z,18.90
2023-04-08T01:06:43.741Z,20.67
2023-04-08T01:11:51.947Z,23.30
2023-04-08T01:16:58.126Z,22.20
2023-04-08T01:22:10.738Z,25.47
2023-04-08T01:27:16.091Z,25.47
2023-04-08T01:32:19.903Z,26.80
2023-04-08T01:37:24.777Z,25.93
2023-04-08T01:42:33.740Z,27.17
2023-04-08T01:47:38.219Z,27.53
2023-04-08T01:52:42.961Z,27.57
2023-04-08T01:57:52.046Z,28.23
2023-04-08T02:02:56.667Z,29.40
2023-04-08T02:08:00.013Z,28.07
2023-04-08T02:13:05.503Z,27.10
2023-04-08T02:18:14.679Z,26.10
2023-04-08T02:23:21.622Z,27.43
2023-04-08T02:28:28.715Z,26.67
2023-04-08T02:33:32.102Z,25.00
2023-04-08T02:38:35.498Z,25.43
2023-04-08T02:43:40.227Z,27.23
2023-04-08T02:48:43.264Z,25.87
2023-04-08T02:53:46.335Z,26.87
2023-04-08T02:58:52.411Z,27.43
2023-04-08T03:03:55.832Z,26.80
2023-04-08T03:08:59.279Z,27.67
2023-04-08T03:14:03.789Z,28.87
2023-04-08T03:19:06.839Z,35.60
2023-04-08T03:24:09.808Z,39.00
2023-04-08T03:29:14.168Z,49.83
2023-04-08T03:34:17.360Z,54.13
2023-04-08T03:39:21.073Z,46.57
2023-04-08T03:44:25.948Z,55.73
2023-04-08T03:49:29.057Z,46.77
2023-04-08T03:54:32.001Z,46.17
2023-04-08T03:59:36.925Z,31.37
2023-04-08T04:04:39.973Z,49.67
2023-04-08T04:09:43.240Z,58.23
2023-04-08T04:14:47.814Z,58.47
2023-04-08T04:19:52.812Z,65.17
2023-04-08T04:24:55.743Z,42.43
2023-04-08T04:30:01.612Z,73.70
2023-04-08T04:35:04.976Z,58.63
2023-04-08T04:40:09.080Z,61.77
2023-04-08T04:45:13.748Z,41.63
2023-04-08T04:50:17.111Z,62.00
2023-04-08T04:55:20.048Z,48.53
2023-04-08T05:00:24.912Z,49.17
2023-04-08T05:05:28.081Z,43.33
2023-04-08T05:10:31.179Z,48.03
2023-04-08T05:15:36.108Z,33.77
2023-04-08T05:20:39.230Z,48.10
2023-04-08T05:25:42.479Z,24.97
2023-04-08T05:30:52.093Z,39.63
2023-04-08T05:35:55.367Z,30.93
2023-04-08T05:40:58.524Z,31.93
2023-04-08T05:46:07.754Z,35.37
2023-04-08T05:51:15.689Z,17.70
2023-04-08T05:56:18.686Z,39.33
2023-04-08T06:01:23.212Z,26.77
2023-04-08T06:06:26.565Z,40.30
2023-04-08T06:11:29.649Z,33.33
2023-04-08T06:16:34.193Z,15.57
2023-04-08T06:21:37.550Z,36.77
2023-04-08T06:26:40.953Z,32.77
2023-04-08T06:31:45.843Z,35.93
2023-04-08T06:36:50.358Z,46.33
2023-04-08T06:41:54.832Z,48.00
2023-04-08T06:47:34.978Z,44.30
2023-04-08T06:52:38.093Z,37.70
2023-04-08T06:57:41.094Z,25.83
2023-04-08T07:02:46.393Z,26.47
2023-04-08T07:07:49.793Z,18.50
2023-04-08T07:12:53.381Z,32.37
2023-04-08T07:17:58.988Z,24.50
2023-04-08T07:23:02.121Z,23.37
2023-04-08T07:28:05.385Z,19.10
2023-04-08T07:33:09.784Z,21.57
2023-04-08T07:38:13.559Z,19.30
2023-04-08T07:43:16.711Z,21.53
2023-04-08T07:48:21.119Z,19.47
2023-04-08T07:53:26.454Z,18.27
2023-04-08T07:58:29.589Z,18.90
2023-04-08T08:03:34.393Z,18.73
2023-04-08T08:08:37.627Z,15.03
2023-04-08T08:13:40.644Z,18.73
2023-04-08T08:18:45.091Z,16.83
2023-04-08T08:23:49.049Z,13.73
2023-04-08T08:28:52.508Z,14.17
2023-04-08T08:33:56.888Z,12.87
2023-04-08T08:39:00.092Z,12.27
2023-04-08T08:44:04.296Z,13.80
2023-04-08T08:49:09.214Z,12.43
2023-04-08T08:54:12.925Z,14.20
2023-04-08T08:59:17.646Z,13.80
2023-04-08T09:04:23.170Z,12.27
2023-04-08T09:09:27.382Z,13.70
2023-04-08T09:14:30.751Z,13.37
2023-04-08T09:19:35.289Z,14.43
2023-04-08T09:24:39.352Z,14.27
2023-04-08T09:29:42.447Z,13.63
2023-04-08T09:34:46.998Z,13.47
2023-04-08T09:39:50.878Z,14.13
2023-04-08T09:44:56.070Z,14.37
2023-04-08T09:50:09.116Z,14.30
2023-04-08T09:55:14.494Z,14.37
2023-04-08T10:00:19.310Z,14.43
2023-04-08T10:05:26.037Z,14.60
2023-04-08T10:10:29.662Z,15.40
2023-04-08T10:15:34.625Z,15.53
2023-04-08T10:20:46.024Z,16.43
2023-04-08T10:25:52.334Z,15.60
2023-04-08T10:30:56.679Z,16.03
2023-04-08T10:36:11.431Z,16.60
2023-04-08T10:41:21.645Z,15.17
2023-04-08T10:46:25.742Z,17.40
2023-04-08T10:51:35.050Z,15.83
2023-04-08T10:56:44.774Z,16.90
2023-04-08T11:01:50.192Z,17.53
2023-04-08T11:06:54.942Z,17.50
2023-04-08T11:11:58.187Z,17.00
2023-04-08T11:17:01.878Z,15.10
2023-04-08T11:22:07.764Z,14.27
2023-04-08T11:27:11.298Z,15.23
2023-04-08T11:32:14.702Z,14.17
2023-04-08T11:37:27.922Z,14.87
2023-04-08T11:42:34.440Z,13.23
2023-04-08T11:47:38.003Z,13.87
2023-04-08T11:52:57.081Z,13.17
2023-04-08T11:58:04.837Z,12.47
2023-04-08T12:03:08.579Z,14.13
2023-04-08T12:08:13.232Z,11.50
2023-04-08T12:13:16.238Z,12.05
2023-04-08T12:18:19.497Z,11.02
2023-04-08T12:23:23.961Z,10.05
2023-04-08T12:28:27.077Z,9.43
2023-04-08T12:33:30.140Z,9.23
2023-04-08T12:38:34.653Z,8.87
2023-04-08T12:43:39.123Z,9.07
2023-04-08T12:48:42.517Z,9.18
2023-04-08T12:53:46.989Z,7.95
2023-04-08T12:58:50.246Z,7.82
2023-04-08T13:03:53.597Z,7.95
2023-04-08T13:08:58.047Z,7.50
2023-04-08T13:14:01.276Z,7.65
2023-04-08T13:19:04.377Z,7.53
2023-04-08T13:24:08.931Z,7.47
2023-04-08T13:29:12.072Z,7.97
2023-04-08T13:34:15.042Z,7.22
2023-04-08T13:39:19.577Z,7.32
2023-04-08T13:44:22.558Z,6.90
2023-04-08T13:49:26.153Z,7.32
2023-04-08T13:54:31.180Z,7.18
2023-04-08T13:59:34.473Z,7.28
2023-04-08T14:04:37.603Z,7.15
2023-04-08T14:09:42.124Z,6.22
2023-04-08T14:14:45.134Z,6.30
2023-04-08T14:19:48.532Z,6.80
2023-04-08T14:24:53.720Z,6.68
2023-04-08T14:29:56.907Z,6.90
2023-04-08T14:35:00.092Z,7.30
2023-04-08T14:40:05.195Z,7.03
2023-04-08T14:45:11.634Z,6.77
2023-04-08T14:50:15.003Z,7.73
2023-04-08T14:55:22.619Z,7.18
2023-04-08T15:00:26.099Z,7.32
2023-04-08T15:05:29.165Z,6.75
2023-04-08T15:10:33.806Z,6.60
2023-04-08T15:15:37.290Z,6.80
2023-04-08T15:20:40.758Z,7.18
2023-04-08T15:25:45.344Z,7.10
2023-04-08T15:30:48.634Z,6.43
2023-04-08T15:35:52.240Z,6.40
2023-04-08T15:40:56.901Z,6.57
2023-04-08T15:46:00.113Z,5.97
2023-04-08T15:51:08.966Z,6.25
2023-04-08T15:56:16.224Z,6.28
2023-04-08T16:01:20.294Z,7.25
2023-04-08T16:06:23.642Z,7.07
2023-04-08T16:11:34.718Z,7.40
2023-04-08T16:16:43.874Z,7.28
2023-04-08T16:21:47.008Z,8.30
2023-04-08T16:26:51.749Z,6.13
2023-04-08T16:31:55.325Z,6.33
2023-04-08T16:36:58.462Z,6.87
2023-04-08T16:42:02.896Z,6.90
2023-04-08T16:47:06.014Z,7.20
2023-04-08T16:52:09.090Z,6.30
2023-04-08T16:57:13.681Z,7.07
2023-04-08T17:02:16.929Z,7.33
2023-04-08T17:07:20.028Z,8.03
2023-04-08T17:12:25.063Z,8.30
2023-04-08T17:17:28.097Z,7.77
2023-04-08T17:22:31.166Z,7.93
2023-04-08T17:27:35.643Z,8.07
2023-04-08T17:32:39.162Z,8.63
2023-04-08T17:37:42.285Z,8.90
2023-04-08T17:42:47.451Z,9.10
2023-04-08T17:47:51.850Z,8.83
2023-04-08T17:52:55.048Z,8.57
2023-04-08T17:57:59.600Z,8.23
2023-04-08T18:03:02.597Z,8.80
2023-04-08T18:08:05.822Z,7.93
2023-04-08T18:13:11.920Z,6.30
2023-04-08T18:18:19.667Z,5.70
2023-04-08T18:23:23.094Z,5.97
2023-04-08T18:28:28.012Z,6.23
2023-04-08T18:33:31.300Z,6.53
2023-04-08T18:38:36.225Z,6.30
2023-04-08T18:43:41.365Z,5.93
2023-04-08T18:48:44.403Z,6.93
2023-04-08T18:53:47.491Z,9.00
2023-04-08T18:58:54.770Z,7.67
2023-04-08T19:03:58.006Z,7.00
2023-04-08T19:09:01.168Z,7.20
2023-04-08T19:14:07.656Z,7.07
2023-04-08T19:19:11.051Z,7.07
2023-04-08T19:24:14.087Z,8.07
2023-04-08T19:29:23.037Z,8.07
2023-04-08T19:34:26.350Z,8.00
2023-04-08T19:39:29.446Z,8.37
2023-04-08T19:44:34.548Z,9.93
2023-04-08T19:49:38.963Z,11.30
2023-04-08T19:54:43.569Z,9.97
2023-04-08T19:59:49.844Z,8.73
2023-04-08T20:04:52.877Z,8.80
2023-04-08T20:09:55.994Z,9.40
2023-04-08T20:15:00.962Z,10.90
2023-04-08T20:20:05.468Z,11.73
2023-04-08T20:25:08.687Z,11.57
2023-04-08T20:30:14.257Z,12.63
2023-04-08T20:35:17.791Z,14.07
2023-04-08T20:40:21.016Z,14.13
2023-04-08T20:45:26.301Z,14.77
2023-04-08T20:50:30.200Z,16.60
2023-04-08T20:55:33.563Z,15.77
2023-04-08T21:00:38.148Z,16.50
2023-04-08T21:05:42.095Z,16.43
2023-04-08T21:10:45.445Z,16.70
2023-04-08T21:15:50.162Z,16.10
2023-04-08T21:20:53.395Z,16.83
2023-04-08T21:25:56.658Z,17.20
2023-04-08T21:31:10.762Z,17.90
2023-04-08T21:36:14.090Z,18.83
2023-04-08T21:41:17.292Z,18.20
2023-04-08T21:46:21.830Z,18.40
2023-04-08T21:51:24.853Z,18.03
2023-04-08T21:56:28.055Z,19.33
2023-04-08T22:01:32.849Z,18.03
2023-04-08T22:06:36.325Z,20.10
2023-04-08T22:11:40.827Z,19.50
2023-04-08T22:16:45.533Z,18.60
2023-04-08T22:21:50.356Z,18.27
2023-04-08T22:26:54.217Z,18.30
2023-04-08T22:31:58.783Z,19.70
2023-04-08T22:37:01.808Z,18.23
2023-04-08T22:42:04.895Z,18.97
2023-04-08T22:47:09.689Z,20.30
2023-04-08T22:52:12.907Z,19.03
2023-04-08T22:57:15.995Z,17.90
2023-04-08T23:02:20.651Z,19.67
2023-04-08T23:07:24.313Z,19.40
2023-04-08T23:12:27.164Z,19.03
2023-04-08T23:17:31.530Z,19.10
2023-04-08T23:22:34.514Z,18.53
2023-04-08T23:27:37.639Z,19.87
2023-04-08T23:32:42.053Z,20.17
2023-04-08T23:37:45.039Z,20.20
2023-04-08T23:42:48.503Z,19.33
2023-04-08T23:47:52.972Z,19.40
2023-04-08T23:52:56.130Z,20.50
2023-04-08T23:58:00.078Z,20.40
